Time;durP1;ratioP1;P1;durP2;ratioP2;P2;SDS_P1;SDS_P2;PMS_P1;PMS_P2;Temp;Humidity;BMP_temperature;BMP_pressure;BME280_temperature;BME280_humidity;BME280_pressure;Samples;Min_cycle;Max_cycle;Signal;HPM_P1;HPM_P2
2022/08/22 00:02:02;;;;;;;;;;;27.70;79.60;;;;;;5005745;28;19926;-55
2022/08/22 00:04:31;;;;;;;;;;;27.70;79.60;;;;;;5006549;28;19930;-53
2022/08/22 00:07:04;;;;;;;;;;;27.70;79.60;;;;;;5001159;28;19926;-55
2022/08/22 00:09:38;;;;;;;;;;;27.70;79.60;;;;;;5001339;28;20664;-56
2022/08/22 00:12:05;;;;;;;;;;;27.70;79.60;;;;;;5000136;28;19929;-58
2022/08/22 00:14:35;;;;;;;;;;;27.70;79.60;;;;;;5003746;28;19930;-53
2022/08/22 00:17:24;;;;;;;;;;;27.70;79.60;;;;;;4995401;28;19929;-58
2022/08/22 00:19:58;;;;;;;;;;;27.70;79.60;;;;;;5000797;28;19930;-58
2022/08/22 00:22:41;;;;;;;;;;;27.70;79.70;;;;;;4999306;28;19940;-51
2022/08/22 00:25:31;;;;;;;;;;;27.70;79.60;;;;;;5005639;28;19932;-55
2022/08/22 00:28:02;;;;;;;;;;;27.70;79.60;;;;;;5000602;28;19945;-55
2022/08/22 00:30:33;;;;;;;;;;;27.70;79.60;;;;;;4999990;28;19936;-56
2022/08/22 00:33:09;;;;;;;;;;;27.70;79.70;;;;;;4998127;28;19930;-57
2022/08/22 00:35:43;;;;;;;;;;;27.70;79.60;;;;;;5003903;28;19929;-54
2022/08/22 00:38:20;;;;;;;;;;;27.70;79.70;;;;;;5009834;28;19937;-54
2022/08/22 00:40:47;;;;;;;;;;;27.70;79.60;;;;;;5009952;28;19933;-52
2022/08/22 00:43:17;;;;;;;;;;;27.70;79.70;;;;;;5003387;28;19936;-57
2022/08/22 00:45:50;;;;;;;;;;;27.70;79.70;;;;;;4998913;28;19949;-56
2022/08/22 00:48:36;;;;;;;;;;;27.70;79.70;;;;;;4997139;28;19933;-53
2022/08/22 00:51:24;;;;;;;;;;;27.70;79.70;;;;;;5004946;28;19929;-53
2022/08/22 00:54:00;;;;;;;;;;;27.70;79.70;;;;;;4993595;28;20252;-52
2022/08/22 00:56:46;;;;;;;;;;;27.70;79.70;;;;;;5005906;28;20991;-52
2022/08/22 00:59:28;;;;;;;;;;;27.70;79.60;;;;;;5000129;28;19972;-54
2022/08/22 01:01:58;;;;;;;;;;;27.70;79.70;;;;;;5005712;28;20415;-55
2022/08/22 01:04:25;;;;;;;;;;;27.70;79.70;;;;;;5004614;28;19929;-53
2022/08/22 01:07:00;;;;;;;;;;;27.60;79.60;;;;;;5008872;28;19925;-56
2022/08/22 01:09:37;;;;;;;;;;;27.70;79.70;;;;;;5006477;28;20281;-55
2022/08/22 01:12:14;;;;;;;;;;;27.70;79.70;;;;;;5005602;28;19925;-53
2022/08/22 01:14:44;;;;;;;;;;;27.60;79.70;;;;;;5007893;28;19929;-53
2022/08/22 01:17:20;;;;;;;;;;;27.60;79.60;;;;;;5004210;28;19936;-55
2022/08/22 01:20:06;;;;;;;;;;;27.60;79.60;;;;;;5007318;28;19936;-53
2022/08/22 01:22:34;;;;;;;;;;;27.60;79.60;;;;;;4999896;28;19936;-56
2022/08/22 01:25:17;;;;;;;;;;;27.60;79.60;;;;;;5002729;28;19944;-56
2022/08/22 01:28:07;;;;;;;;;;;27.60;79.70;;;;;;5001987;28;19929;-56
2022/08/22 01:30:41;;;;;;;;;;;27.60;79.60;;;;;;5001729;28;20508;-56
2022/08/22 01:33:26;;;;;;;;;;;27.60;79.60;;;;;;4996864;28;19925;-52
2022/08/22 01:35:53;;;;;;;;;;;27.60;79.60;;;;;;4999856;28;20309;-56
2022/08/22 01:38:31;;;;;;;;;;;27.60;79.60;;;;;;5007864;28;20538;-51
2022/08/22 01:41:07;;;;;;;;;;;27.60;79.60;;;;;;5006739;28;19940;-56
2022/08/22 01:43:57;;;;;;;;;;;27.60;79.60;;;;;;5009498;28;20112;-54
2022/08/22 01:46:31;;;;;;;;;;;27.60;79.70;;;;;;5001254;28;20290;-52
2022/08/22 01:49:04;;;;;;;;;;;27.60;79.70;;;;;;4997679;28;19930;-55
2022/08/22 01:51:44;;;;;;;;;;;27.60;79.70;;;;;;5007899;28;19929;-53
2022/08/22 01:54:19;;;;;;;;;;;27.60;79.70;;;;;;4999626;28;20225;-54
2022/08/22 01:56:46;;;;;;;;;;;27.60;79.70;;;;;;5006177;28;19930;-55
2022/08/22 01:59:29;;;;;;;;;;;27.60;79.80;;;;;;5002435;28;19925;-51
2022/08/22 02:02:10;;;;;;;;;;;27.60;79.70;;;;;;5004761;28;20360;-52
2022/08/22 02:04:46;;;;;;;;;;;27.60;79.70;;;;;;4999438;28;19926;-58
2022/08/22 02:07:24;;;;;;;;;;;27.60;79.80;;;;;;5005270;28;19932;-55
2022/08/22 02:10:02;;;;;;;;;;;27.50;79.70;;;;;;5000960;28;19937;-55
2022/08/22 02:12:44;;;;;;;;;;;27.60;79.80;;;;;;4995790;28;19930;-51
2022/08/22 02:15:15;;;;;;;;;;;27.50;79.70;;;;;;5001422;28;20339;-54
2022/08/22 02:17:49;;;;;;;;;;;27.50;79.70;;;;;;5003061;28;20401;-55
2022/08/22 02:20:19;;;;;;;;;;;27.50;79.70;;;;;;4999351;28;20494;-55
2022/08/22 02:22:56;;;;;;;;;;;27.50;79.70;;;;;;4989637;28;19930;-55
2022/08/22 02:25:25;;;;;;;;;;;27.50;79.70;;;;;;5003882;28;20333;-52
2022/08/22 02:27:57;;;;;;;;;;;27.50;79.70;;;;;;5007908;28;20400;-54
2022/08/22 02:30:44;;;;;;;;;;;27.50;79.70;;;;;;5001742;28;20325;-51
2022/08/22 02:33:16;;;;;;;;;;;27.50;79.70;;;;;;5010058;28;19929;-54
2022/08/22 02:35:59;;;;;;;;;;;27.50;79.70;;;;;;5000315;28;19926;-55
2022/08/22 02:38:29;;;;;;;;;;;27.50;79.70;;;;;;5005743;28;20316;-51
2022/08/22 02:41:02;;;;;;;;;;;27.50;79.80;;;;;;5003063;28;19933;-52
2022/08/22 02:43:36;;;;;;;;;;;27.50;79.80;;;;;;5003276;28;20423;-53
2022/08/22 02:46:18;;;;;;;;;;;27.50;79.80;;;;;;5007226;28;19936;-53
2022/08/22 02:49:01;;;;;;;;;;;27.50;79.80;;;;;;5002925;28;19937;-52
2022/08/22 02:51:28;;;;;;;;;;;27.50;79.80;;;;;;5006658;28;19952;-56
2022/08/22 02:54:15;;;;;;;;;;;27.50;79.80;;;;;;5001684;28;20425;-58
2022/08/22 02:56:42;;;;;;;;;;;27.50;79.80;;;;;;4995657;28;19937;-56
2022/08/22 02:59:19;;;;;;;;;;;27.50;79.80;;;;;;4991368;28;20707;-54
2022/08/22 03:01:46;;;;;;;;;;;27.50;79.80;;;;;;5006394;28;20356;-52
2022/08/22 03:04:22;;;;;;;;;;;27.50;79.80;;;;;;5007757;28;20012;-54
2022/08/22 03:07:04;;;;;;;;;;;27.50;79.80;;;;;;5007467;28;19933;-54
2022/08/22 03:09:42;;;;;;;;;;;27.50;79.80;;;;;;5006211;28;20360;-56
2022/08/22 03:12:15;;;;;;;;;;;27.40;79.70;;;;;;5001236;28;19930;-53
2022/08/22 03:14:55;;;;;;;;;;;27.40;79.70;;;;;;5000630;28;20397;-57
2022/08/22 03:17:29;;;;;;;;;;;27.40;79.70;;;;;;5013809;28;19914;-57
2022/08/22 03:19:56;;;;;;;;;;;27.40;79.80;;;;;;5005129;28;19929;-55
2022/08/22 03:22:23;;;;;;;;;;;27.40;79.80;;;;;;4999908;28;19926;-55
2022/08/22 03:24:50;;;;;;;;;;;27.40;79.80;;;;;;5005047;28;19933;-57
2022/08/22 03:27:23;;;;;;;;;;;27.40;79.80;;;;;;5001500;28;19936;-56
2022/08/22 03:30:06;;;;;;;;;;;27.40;79.80;;;;;;4996895;28;19926;-52
2022/08/22 03:32:52;;;;;;;;;;;27.40;79.80;;;;;;4997857;28;19929;-49
2022/08/22 03:35:42;;;;;;;;;;;27.40;79.80;;;;;;4999185;28;19952;-52
2022/08/22 03:38:13;;;;;;;;;;;27.40;79.80;;;;;;4995724;28;19968;-54
2022/08/22 03:40:43;;;;;;;;;;;27.40;79.80;;;;;;4996382;28;19930;-54
2022/08/22 03:43:29;;;;;;;;;;;27.40;79.80;;;;;;5005603;28;19933;-55
2022/08/22 03:46:08;;;;;;;;;;;27.40;79.80;;;;;;5002637;28;20378;-53
2022/08/22 03:48:37;;;;;;;;;;;27.40;79.80;;;;;;5000894;28;19930;-55
2022/08/22 03:51:13;;;;;;;;;;;27.40;79.80;;;;;;5003281;28;19952;-53
2022/08/22 03:54:00;;;;;;;;;;;27.40;79.80;;;;;;5002460;28;19930;-55
2022/08/22 03:56:43;;;;;;;;;;;27.40;79.80;;;;;;4986911;28;19941;-53
2022/08/22 03:59:19;;;;;;;;;;;27.40;79.90;;;;;;4992567;28;19930;-57
2022/08/22 04:02:00;;;;;;;;;;;27.40;79.90;;;;;;5003224;28;19936;-56
2022/08/22 04:04:46;;;;;;;;;;;27.40;79.90;;;;;;4995526;28;19934;-52
2022/08/22 04:07:32;;;;;;;;;;;27.40;79.80;;;;;;5000332;28;19926;-53
2022/08/22 04:10:11;;;;;;;;;;;27.40;79.90;;;;;;5006411;28;19929;-50
2022/08/22 04:12:38;;;;;;;;;;;27.30;79.80;;;;;;4995483;28;20735;-50
2022/08/22 04:15:11;;;;;;;;;;;27.30;79.80;;;;;;4996457;28;19937;-51
2022/08/22 04:17:38;;;;;;;;;;;27.30;79.80;;;;;;4996529;28;19929;-50
2022/08/22 04:20:09;;;;;;;;;;;27.30;79.80;;;;;;5002117;28;19934;-54
2022/08/22 04:22:39;;;;;;;;;;;27.40;79.90;;;;;;5005793;28;19937;-56
2022/08/22 04:25:13;;;;;;;;;;;27.40;79.90;;;;;;5004549;28;19933;-53
2022/08/22 04:27:51;;;;;;;;;;;27.30;79.80;;;;;;5005072;28;20397;-52
2022/08/22 04:30:18;;;;;;;;;;;27.30;79.80;;;;;;5002130;28;19933;-53
2022/08/22 04:32:49;;;;;;;;;;;27.30;79.80;;;;;;5006725;28;19929;-54
2022/08/22 04:35:29;;;;;;;;;;;27.30;79.90;;;;;;5005336;28;19940;-54
2022/08/22 04:37:59;;;;;;;;;;;27.30;79.90;;;;;;5012204;28;21706;-53
2022/08/22 04:40:35;;;;;;;;;;;27.30;79.90;;;;;;5005138;28;19930;-53
2022/08/22 04:43:07;;;;;;;;;;;27.30;79.90;;;;;;5007646;28;20301;-53
2022/08/22 04:45:36;;;;;;;;;;;27.30;79.90;;;;;;5010486;28;20277;-53
2022/08/22 04:48:18;;;;;;;;;;;27.30;79.90;;;;;;5005604;28;19929;-50
2022/08/22 04:51:12;;;;;;;;;;;27.30;79.90;;;;;;5004817;28;20423;-57
2022/08/22 04:53:48;;;;;;;;;;;27.30;79.90;;;;;;5001290;28;20335;-53
2022/08/22 04:56:23;;;;;;;;;;;27.30;80.50;;;;;;5003931;28;19929;-55
2022/08/22 04:58:57;;;;;;;;;;;27.30;79.90;;;;;;5004202;28;20413;-55
2022/08/22 05:01:38;;;;;;;;;;;27.30;79.90;;;;;;5006617;28;20009;-53
2022/08/22 05:04:07;;;;;;;;;;;27.30;79.90;;;;;;5006033;28;19926;-53
2022/08/22 05:06:37;;;;;;;;;;;27.30;79.90;;;;;;5004933;28;19932;-50
2022/08/22 05:09:14;;;;;;;;;;;27.30;79.90;;;;;;5001619;28;20413;-56
2022/08/22 05:11:45;;;;;;;;;;;27.30;79.90;;;;;;5001230;28;19949;-51
2022/08/22 05:14:14;;;;;;;;;;;27.30;79.90;;;;;;5003827;28;19972;-55
2022/08/22 05:16:43;;;;;;;;;;;27.30;79.90;;;;;;5007320;28;20429;-57
2022/08/22 05:19:16;;;;;;;;;;;27.30;79.90;;;;;;5001181;28;19929;-52
2022/08/22 05:21:54;;;;;;;;;;;27.30;79.90;;;;;;5004040;28;19926;-55
2022/08/22 05:24:21;;;;;;;;;;;27.30;80.00;;;;;;5000325;28;20139;-51
2022/08/22 05:26:56;;;;;;;;;;;27.30;79.90;;;;;;5009473;28;20420;-52
2022/08/22 05:29:25;;;;;;;;;;;27.30;79.90;;;;;;5004605;28;19925;-51
2022/08/22 05:31:55;;;;;;;;;;;27.30;79.90;;;;;;5009521;28;19932;-55
2022/08/22 05:34:25;;;;;;;;;;;27.30;79.90;;;;;;5001455;28;19926;-55
2022/08/22 05:36:59;;;;;;;;;;;27.30;79.90;;;;;;5010291;28;19925;-56
2022/08/22 05:39:27;;;;;;;;;;;27.30;79.90;;;;;;5006618;28;20413;-53
2022/08/22 05:41:56;;;;;;;;;;;27.30;79.90;;;;;;5005244;28;20184;-56
2022/08/22 05:44:24;;;;;;;;;;;27.30;79.90;;;;;;5003853;28;19926;-52
2022/08/22 05:46:54;;;;;;;;;;;27.30;79.90;;;;;;5004878;28;19934;-54
2022/08/22 05:49:31;;;;;;;;;;;27.30;79.80;;;;;;5006378;28;19937;-55
2022/08/22 05:52:16;;;;;;;;;;;27.30;79.80;;;;;;5008380;28;19945;-52
2022/08/22 05:54:55;;;;;;;;;;;27.30;79.90;;;;;;5004448;28;20308;-52
2022/08/22 05:57:27;;;;;;;;;;;27.30;79.80;;;;;;4998815;28;20412;-54
2022/08/22 05:59:59;;;;;;;;;;;27.30;79.80;;;;;;5001753;28;19944;-53
2022/08/22 06:02:36;;;;;;;;;;;27.30;79.80;;;;;;5006268;28;20425;-51
2022/08/22 06:05:05;;;;;;;;;;;27.30;79.80;;;;;;5008318;28;19930;-52
2022/08/22 06:07:43;;;;;;;;;;;27.30;79.80;;;;;;5006650;28;19926;-51
2022/08/22 06:10:11;;;;;;;;;;;27.30;79.80;;;;;;5008258;28;19929;-57
2022/08/22 06:12:41;;;;;;;;;;;27.30;79.80;;;;;;5000987;28;19933;-56
2022/08/22 06:15:15;;;;;;;;;;;27.30;79.80;;;;;;5000580;28;19930;-53
2022/08/22 06:17:48;;;;;;;;;;;27.30;79.80;;;;;;5003080;28;19952;-54
2022/08/22 06:20:18;;;;;;;;;;;27.30;79.80;;;;;;5012282;28;20421;-57
2022/08/22 06:22:50;;;;;;;;;;;27.30;79.80;;;;;;5014968;28;19929;-54
2022/08/22 06:25:21;;;;;;;;;;;27.30;79.80;;;;;;5006581;28;20277;-55
2022/08/22 06:27:48;;;;;;;;;;;27.30;79.80;;;;;;5002722;28;20016;-53
2022/08/22 06:30:16;;;;;;;;;;;27.30;79.80;;;;;;5001460;28;19929;-50
2022/08/22 06:32:47;;;;;;;;;;;27.30;79.80;;;;;;5005751;28;19936;-54
2022/08/22 06:35:28;;;;;;;;;;;27.30;79.80;;;;;;5009602;28;19936;-56
2022/08/22 06:37:57;;;;;;;;;;;27.30;79.80;;;;;;5012019;28;19945;-52
2022/08/22 06:40:27;;;;;;;;;;;27.30;79.90;;;;;;5003823;28;19937;-52
2022/08/22 06:42:54;;;;;;;;;;;27.30;79.90;;;;;;4993787;28;20327;-51
2022/08/22 06:45:30;;;;;;;;;;;27.30;79.90;;;;;;5000615;28;20639;-53
2022/08/22 06:48:06;;;;;;;;;;;27.30;79.80;;;;;;5004999;28;20401;-55
2022/08/22 06:50:35;;;;;;;;;;;27.30;79.90;;;;;;5006542;28;19948;-55
2022/08/22 06:53:15;;;;;;;;;;;27.30;79.90;;;;;;5004017;28;20427;-57
2022/08/22 06:55:45;;;;;;;;;;;27.30;79.90;;;;;;4998358;28;19941;-57
2022/08/22 06:58:14;;;;;;;;;;;27.30;80.00;;;;;;4998831;28;19941;-53
2022/08/22 07:00:42;;;;;;;;;;;27.30;80.00;;;;;;5000914;28;19945;-54
2022/08/22 07:03:13;;;;;;;;;;;27.30;80.00;;;;;;5001671;28;19930;-50
2022/08/22 07:05:41;;;;;;;;;;;27.30;80.00;;;;;;5005298;28;20236;-52
2022/08/22 07:08:11;;;;;;;;;;;27.30;80.00;;;;;;5000672;28;20193;-51
2022/08/22 07:10:40;;;;;;;;;;;27.30;80.00;;;;;;5004859;28;19925;-52
2022/08/22 07:13:12;;;;;;;;;;;27.30;80.00;;;;;;4999981;28;20155;-54
2022/08/22 07:15:41;;;;;;;;;;;27.30;80.10;;;;;;5019981;22;20335;-58
2022/08/22 07:18:15;;;;;;;;;;;27.30;80.00;;;;;;5054371;28;19932;-57
2022/08/22 07:20:46;;;;;;;;;;;27.30;80.10;;;;;;5068504;28;19928;-55
2022/08/22 07:23:24;;;;;;;;;;;27.30;80.10;;;;;;5058833;28;20457;-58
2022/08/22 07:25:56;;;;;;;;;;;27.30;80.10;;;;;;5047024;28;19929;-59
2022/08/22 07:28:38;;;;;;;;;;;27.30;80.10;;;;;;5039977;28;20273;-56
2022/08/22 07:31:32;;;;;;;;;;;27.30;80.10;;;;;;5029601;28;19948;-59
2022/08/22 07:34:06;;;;;;;;;;;27.30;80.10;;;;;;5040130;28;19928;-57
2022/08/22 07:36:41;;;;;;;;;;;27.30;80.10;;;;;;5039392;28;20389;-57
2022/08/22 07:39:20;;;;;;;;;;;27.30;80.00;;;;;;5036912;28;19924;-56
2022/08/22 07:42:01;;;;;;;;;;;27.30;80.00;;;;;;5037631;28;19932;-57
2022/08/22 07:44:34;;;;;;;;;;;27.30;80.00;;;;;;5041466;28;19955;-59
2022/08/22 07:47:07;;;;;;;;;;;27.30;80.30;;;;;;5046134;28;19932;-57
2022/08/22 07:49:41;;;;;;;;;;;27.30;80.10;;;;;;5030788;28;19925;-57
2022/08/22 07:52:16;;;;;;;;;;;27.30;80.00;;;;;;5039938;28;19929;-58
2022/08/22 07:54:49;;;;;;;;;;;27.30;80.60;;;;;;5053570;28;19932;-57
2022/08/22 07:57:29;;;;;;;;;;;27.30;80.00;;;;;;5030137;28;20420;-59
2022/08/22 07:59:58;;;;;;;;;;;27.30;80.00;;;;;;5034977;28;19936;-59
2022/08/22 08:02:26;;;;;;;;;;;27.30;80.00;;;;;;5034748;28;19933;-58
2022/08/22 08:04:54;;;;;;;;;;;27.30;80.10;;;;;;5051394;28;20297;-59
2022/08/22 08:07:24;;;;;;;;;;;27.30;80.10;;;;;;5049297;28;19936;-58
2022/08/22 08:09:55;;;;;;;;;;;27.30;80.00;;;;;;5040947;28;19944;-57
2022/08/22 08:12:28;;;;;;;;;;;27.30;80.00;;;;;;5034360;28;19937;-57
2022/08/22 08:14:56;;;;;;;;;;;27.30;80.00;;;;;;5044442;28;19929;-58
2022/08/22 08:17:25;;;;;;;;;;;27.30;80.00;;;;;;5037941;28;19933;-55
2022/08/22 08:20:01;;;;;;;;;;;27.30;80.00;;;;;;5033015;28;19929;-58
2022/08/22 08:22:28;;;;;;;;;;;27.40;80.10;;;;;;5037677;28;19936;-57
2022/08/22 08:24:57;;;;;;;;;;;27.40;80.70;;;;;;5038178;28;20395;-57
2022/08/22 08:30:18;;;;;;;;;;;27.40;80.10;;;;;;5027013;28;19925;-57
2022/08/22 08:32:48;;;;;;;;;;;27.40;80.10;;;;;;5036942;28;20401;-59
2022/08/22 08:35:18;;;;;;;;;;;27.40;80.70;;;;;;5030898;28;19935;-59
2022/08/22 08:37:51;;;;;;;;;;;27.50;80.70;;;;;;5031525;28;19929;-59
2022/08/22 08:40:24;;;;;;;;;;;27.50;80.10;;;;;;5027443;28;19929;-58
2022/08/22 08:46:13;;;;;;;;;;;27.50;80.20;;;;;;5039432;28;19929;-56
2022/08/22 08:48:50;;;;;;;;;;;27.50;80.20;;;;;;5012889;28;20432;-57
2022/08/22 08:51:20;;;;;;;;;;;27.50;80.80;;;;;;5048319;28;19925;-57
2022/08/22 08:54:08;;;;;;;;;;;27.50;80.30;;;;;;5034360;28;19937;-56
2022/08/22 08:56:41;;;;;;;;;;;27.50;80.20;;;;;;5040420;28;20284;-55
2022/08/22 08:59:31;;;;;;;;;;;27.50;80.80;;;;;;5046329;28;19930;-55
2022/08/22 09:01:59;;;;;;;;;;;27.50;80.20;;;;;;5038719;28;19925;-56
2022/08/22 09:04:57;;;;;;;;;;;27.50;80.30;;;;;;5040658;28;19929;-58
2022/08/22 09:07:44;;;;;;;;;;;27.50;80.20;;;;;;5038124;28;20124;-58
2022/08/22 09:10:23;;;;;;;;;;;27.50;80.20;;;;;;5039790;28;19932;-56
2022/08/22 09:13:01;;;;;;;;;;;27.50;80.20;;;;;;5035899;28;19940;-58
2022/08/22 09:15:49;;;;;;;;;;;27.60;80.30;;;;;;5034621;28;19932;-56
2022/08/22 09:18:43;;;;;;;;;;;27.60;80.30;;;;;;5030792;28;19933;-55
2022/08/22 09:21:16;;;;;;;;;;;27.50;80.20;;;;;;5048228;28;20389;-55
2022/08/22 09:23:56;;;;;;;;;;;27.60;80.30;;;;;;5048460;28;20281;-57
2022/08/22 09:26:39;;;;;;;;;;;27.60;80.30;;;;;;5047436;28;20076;-57
2022/08/22 09:29:06;;;;;;;;;;;27.60;80.30;;;;;;5042106;28;19929;-57
2022/08/22 09:31:39;;;;;;;;;;;27.60;80.30;;;;;;5032894;28;19925;-57
2022/08/22 09:34:28;;;;;;;;;;;27.60;80.30;;;;;;5030750;28;19934;-59
2022/08/22 09:37:07;;;;;;;;;;;27.60;80.30;;;;;;5042821;28;20487;-57
2022/08/22 09:39:52;;;;;;;;;;;27.60;80.30;;;;;;5029708;28;19940;-57
2022/08/22 09:42:40;;;;;;;;;;;27.60;80.40;;;;;;5042858;28;19933;-57
2022/08/22 09:45:31;;;;;;;;;;;27.60;80.30;;;;;;5048509;28;20376;-58
2022/08/22 09:48:00;;;;;;;;;;;27.60;80.30;;;;;;5043824;28;19999;-55
2022/08/22 09:50:52;;;;;;;;;;;27.60;80.30;;;;;;5029982;28;20340;-59
2022/08/22 09:53:57;;;;;;;;;;;27.60;80.40;;;;;;5031179;28;19935;-59
2022/08/22 09:56:34;;;;;;;;;;;27.60;80.40;;;;;;5044330;28;19936;-57
2022/08/22 09:59:21;;;;;;;;;;;27.60;80.40;;;;;;5048245;28;19925;-57
2022/08/22 10:01:52;;;;;;;;;;;27.60;80.40;;;;;;5045190;28;20003;-56
2022/08/22 10:04:30;;;;;;;;;;;27.60;80.40;;;;;;5045167;28;19948;-58
2022/08/22 10:06:57;;;;;;;;;;;27.60;80.40;;;;;;5039536;28;19940;-59
2022/08/22 10:09:27;;;;;;;;;;;27.60;80.40;;;;;;5047054;28;19951;-56
2022/08/22 10:12:18;;;;;;;;;;;27.60;80.40;;;;;;5045023;28;19939;-56
2022/08/22 10:14:50;;;;;;;;;;;27.60;80.40;;;;;;5027712;28;19952;-58
2022/08/22 10:17:38;;;;;;;;;;;27.60;80.30;;;;;;5035427;28;19926;-56
2022/08/22 10:20:07;;;;;;;;;;;27.60;80.40;;;;;;5046092;28;19932;-60
2022/08/22 10:22:55;;;;;;;;;;;27.60;80.40;;;;;;5041818;28;19924;-56
2022/08/22 10:25:35;;;;;;;;;;;27.60;80.40;;;;;;5047839;28;19936;-55
2022/08/22 10:28:08;;;;;;;;;;;27.60;80.40;;;;;;5031716;28;19937;-56
2022/08/22 10:30:44;;;;;;;;;;;27.60;80.40;;;;;;5046188;28;19951;-57
2022/08/22 10:33:14;;;;;;;;;;;27.60;80.40;;;;;;5033025;28;19929;-59
2022/08/22 10:35:41;;;;;;;;;;;27.60;80.40;;;;;;5041595;28;19929;-57
2022/08/22 10:38:11;;;;;;;;;;;27.60;80.40;;;;;;5039809;28;20347;-59
2022/08/22 10:41:02;;;;;;;;;;;27.60;80.40;;;;;;5040664;28;20396;-61
2022/08/22 10:43:48;;;;;;;;;;;27.60;80.30;;;;;;5030658;28;20147;-59
2022/08/22 10:46:30;;;;;;;;;;;27.60;80.40;;;;;;5034148;28;20341;-63
2022/08/22 10:49:01;;;;;;;;;;;27.60;80.40;;;;;;5056869;28;19944;-69
2022/08/22 10:51:54;;;;;;;;;;;27.60;80.40;;;;;;5035858;28;19940;-57
2022/08/22 10:54:36;;;;;;;;;;;27.60;80.40;;;;;;5044059;28;19935;-58
2022/08/22 10:57:03;;;;;;;;;;;27.60;80.40;;;;;;5037908;28;19933;-58
2022/08/22 10:59:36;;;;;;;;;;;27.70;80.50;;;;;;5033625;28;20376;-58
2022/08/22 11:02:05;;;;;;;;;;;27.70;80.40;;;;;;5037435;28;19930;-57
2022/08/22 11:04:37;;;;;;;;;;;27.70;80.40;;;;;;5036909;28;19940;-57
2022/08/22 11:07:36;;;;;;;;;;;27.70;80.40;;;;;;5035962;28;19940;-56
2022/08/22 11:10:17;;;;;;;;;;;27.70;80.40;;;;;;5034419;28;19929;-57
2022/08/22 11:12:53;;;;;;;;;;;27.70;80.40;;;;;;5046502;28;19932;-55
2022/08/22 11:15:39;;;;;;;;;;;27.70;80.40;;;;;;5046244;28;19935;-58
2022/08/22 11:18:15;;;;;;;;;;;27.70;80.40;;;;;;5038869;28;19952;-59
2022/08/22 11:20:55;;;;;;;;;;;27.70;80.50;;;;;;5027462;28;19935;-57
2022/08/22 11:23:44;;;;;;;;;;;27.70;80.40;;;;;;5035045;28;19937;-57
2022/08/22 11:26:17;;;;;;;;;;;27.70;80.40;;;;;;5052680;28;19925;-56
2022/08/22 11:29:17;;;;;;;;;;;27.70;80.40;;;;;;5037187;28;20303;-58
2022/08/22 11:31:56;;;;;;;;;;;27.70;80.40;;;;;;5036985;28;19929;-56
2022/08/22 11:34:49;;;;;;;;;;;27.70;80.40;;;;;;5037586;28;19948;-56
2022/08/22 11:37:23;;;;;;;;;;;27.70;80.40;;;;;;5044768;28;20307;-58
2022/08/22 11:40:21;;;;;;;;;;;27.70;80.40;;;;;;5044689;28;19928;-57
2022/08/22 11:43:11;;;;;;;;;;;27.70;80.40;;;;;;5045216;28;20498;-58
2022/08/22 11:45:46;;;;;;;;;;;27.70;80.40;;;;;;5031297;28;19925;-59
2022/08/22 11:48:37;;;;;;;;;;;27.70;80.40;;;;;;5044450;28;19940;-57
2022/08/22 11:51:14;;;;;;;;;;;27.70;80.30;;;;;;5041428;28;19935;-58
2022/08/22 11:53:44;;;;;;;;;;;27.70;80.40;;;;;;5031449;28;19948;-57
2022/08/22 11:56:17;;;;;;;;;;;27.70;80.40;;;;;;5041018;28;20474;-58
2022/08/22 11:58:56;;;;;;;;;;;27.70;80.40;;;;;;5044508;28;20313;-57
2022/08/22 12:01:36;;;;;;;;;;;27.70;80.40;;;;;;5031585;28;19952;-54
2022/08/22 12:04:18;;;;;;;;;;;27.70;80.40;;;;;;5044329;28;19933;-52
2022/08/22 12:06:46;;;;;;;;;;;27.70;80.40;;;;;;5024149;28;19935;-54
2022/08/22 12:09:34;;;;;;;;;;;27.70;80.40;;;;;;5025549;28;19940;-55
2022/08/22 12:12:13;;;;;;;;;;;27.70;80.40;;;;;;5028108;28;19940;-54
2022/08/22 12:14:58;;;;;;;;;;;27.70;80.40;;;;;;5023443;28;19936;-54
2022/08/22 12:17:44;;;;;;;;;;;27.70;80.40;;;;;;5033947;28;19933;-56
2022/08/22 12:20:43;;;;;;;;;;;27.60;80.30;;;;;;5042324;28;19933;-55
2022/08/22 12:23:23;;;;;;;;;;;27.70;80.30;;;;;;5033514;28;20344;-54
2022/08/22 12:26:16;;;;;;;;;;;27.70;80.40;;;;;;5036284;28;19929;-53
2022/08/22 12:28:56;;;;;;;;;;;27.70;80.40;;;;;;5036691;28;19932;-55
2022/08/22 12:31:34;;;;;;;;;;;27.70;80.30;;;;;;5040754;28;19929;-56
2022/08/22 12:34:11;;;;;;;;;;;27.60;80.30;;;;;;5031479;28;19935;-57
2022/08/22 12:36:53;;;;;;;;;;;27.60;80.30;;;;;;5044918;28;20332;-56
2022/08/22 12:39:39;;;;;;;;;;;27.60;80.30;;;;;;5029911;28;19929;-56
2022/08/22 12:42:18;;;;;;;;;;;27.60;80.30;;;;;;5040035;28;19947;-53
2022/08/22 12:45:04;;;;;;;;;;;27.60;80.30;;;;;;5032362;28;19939;-54
2022/08/22 12:47:44;;;;;;;;;;;27.60;80.20;;;;;;5054831;28;19939;-58
2022/08/22 12:50:12;;;;;;;;;;;27.70;80.30;;;;;;5051275;28;19940;-53
2022/08/22 12:52:42;;;;;;;;;;;27.70;80.30;;;;;;5043882;28;20456;-57
2022/08/22 12:55:20;;;;;;;;;;;27.70;80.30;;;;;;5049739;28;19929;-52
2022/08/22 12:58:00;;;;;;;;;;;27.70;80.30;;;;;;5039703;28;19937;-56
2022/08/22 13:00:33;;;;;;;;;;;27.60;80.20;;;;;;5044205;28;19929;-54
2022/08/22 13:03:03;;;;;;;;;;;27.70;80.20;;;;;;5045054;28;20412;-55
2022/08/22 13:05:30;;;;;;;;;;;27.70;80.20;;;;;;5051657;28;19928;-55
2022/08/22 13:08:28;;;;;;;;;;;27.70;80.20;;;;;;5051998;28;19929;-55
2022/08/22 13:10:58;;;;;;;;;;;27.70;80.20;;;;;;5046410;28;19929;-56
2022/08/22 13:13:38;;;;;;;;;;;27.80;80.20;;;;;;5031943;28;19930;-57
2022/08/22 13:16:11;;;;;;;;;;;27.80;80.10;;;;;;5044669;28;19929;-55
2022/08/22 13:18:45;;;;;;;;;;;27.80;80.10;;;;;;5040336;28;19932;-58
2022/08/22 13:21:26;;;;;;;;;;;27.90;80.10;;;;;;5042619;28;19925;-57
2022/08/22 13:24:03;;;;;;;;;;;27.90;80.00;;;;;;5038597;28;20611;-57
2022/08/22 13:26:31;;;;;;;;;;;27.90;79.90;;;;;;5034402;28;19984;-56
2022/08/22 13:29:05;;;;;;;;;;;27.90;79.90;;;;;;5022895;28;19929;-55
2022/08/22 13:31:54;;;;;;;;;;;28.00;79.90;;;;;;5024733;28;19928;-55
2022/08/22 13:34:35;;;;;;;;;;;28.00;79.90;;;;;;5047122;28;19929;-56
2022/08/22 13:37:10;;;;;;;;;;;28.00;79.80;;;;;;5035521;28;19925;-55
2022/08/22 13:39:40;;;;;;;;;;;28.10;79.70;;;;;;5019907;28;19929;-52
2022/08/22 13:42:13;;;;;;;;;;;28.00;79.70;;;;;;5040820;28;19925;-58
2022/08/22 13:44:55;;;;;;;;;;;28.10;79.80;;;;;;5042318;28;19928;-53
2022/08/22 13:47:25;;;;;;;;;;;28.10;79.70;;;;;;5036734;28;19930;-54
2022/08/22 13:50:11;;;;;;;;;;;28.10;79.60;;;;;;5034061;28;19929;-53
2022/08/22 13:52:48;;;;;;;;;;;28.10;79.90;;;;;;5013403;28;19929;-54
2022/08/22 13:55:21;;;;;;;;;;;28.10;79.70;;;;;;5044464;28;20324;-56
2022/08/22 13:58:03;;;;;;;;;;;28.10;79.70;;;;;;5038317;28;19929;-53
2022/08/22 14:00:52;;;;;;;;;;;28.10;79.80;;;;;;5034852;28;19963;-54
2022/08/22 14:03:44;;;;;;;;;;;28.00;79.80;;;;;;5026867;28;20405;-53
2022/08/22 14:06:31;;;;;;;;;;;28.00;79.90;;;;;;5042149;28;20306;-52
2022/08/22 14:09:10;;;;;;;;;;;28.00;79.90;;;;;;5035251;28;20352;-52
2022/08/22 14:11:52;;;;;;;;;;;28.00;79.90;;;;;;5027668;28;20380;-54
2022/08/22 14:14:21;;;;;;;;;;;28.00;79.80;;;;;;5026525;28;19931;-56
2022/08/22 14:16:53;;;;;;;;;;;28.10;79.80;;;;;;5032809;28;19929;-51
2022/08/22 14:19:27;;;;;;;;;;;28.10;79.80;;;;;;5037396;28;20463;-55
2022/08/22 14:21:55;;;;;;;;;;;28.10;79.80;;;;;;5042799;28;19959;-53
2022/08/22 14:24:36;;;;;;;;;;;28.00;79.70;;;;;;5032286;28;19933;-57
2022/08/22 14:27:13;;;;;;;;;;;28.10;79.80;;;;;;5026168;28;19929;-55
2022/08/22 14:29:46;;;;;;;;;;;28.10;79.70;;;;;;5031604;28;19929;-56
2022/08/22 14:32:22;;;;;;;;;;;28.10;79.70;;;;;;5040873;28;19935;-54
2022/08/22 14:35:02;;;;;;;;;;;28.10;79.70;;;;;;5051803;22;19926;-63
2022/08/22 14:37:34;;;;;;;;;;;28.10;79.70;;;;;;5020535;28;19925;-65
2022/08/22 14:40:08;;;;;;;;;;;28.20;79.60;;;;;;5031268;28;19926;-64
2022/08/22 14:42:46;;;;;;;;;;;28.30;79.60;;;;;;5024375;28;19929;-64
2022/08/22 14:45:36;;;;;;;;;;;28.40;79.40;;;;;;5016723;28;19936;-61
2022/08/22 14:48:04;;;;;;;;;;;28.40;79.20;;;;;;5017135;28;19930;-62
2022/08/22 14:50:55;;;;;;;;;;;28.60;79.10;;;;;;5023386;28;19925;-63
2022/08/22 14:53:24;;;;;;;;;;;28.50;79.00;;;;;;5010780;28;19936;-64
2022/08/22 14:55:57;;;;;;;;;;;28.40;79.00;;;;;;5013800;28;19932;-62
2022/08/22 14:58:25;;;;;;;;;;;28.40;79.20;;;;;;5020233;28;19929;-64
2022/08/22 15:00:55;;;;;;;;;;;28.30;79.30;;;;;;5023037;28;20408;-63
2022/08/22 15:03:24;;;;;;;;;;;28.20;79.30;;;;;;4996458;28;20510;-66
2022/08/22 15:05:54;;;;;;;;;;;28.20;79.40;;;;;;5017415;28;19935;-63
2022/08/22 15:08:24;;;;;;;;;;;28.20;79.50;;;;;;5015460;28;19929;-65
2022/08/22 15:11:08;;;;;;;;;;;28.20;79.50;;;;;;5011504;28;19944;-64
2022/08/22 15:13:37;;;;;;;;;;;28.20;79.50;;;;;;5009321;28;19940;-64
2022/08/22 15:16:16;;;;;;;;;;;28.30;79.50;;;;;;5012955;28;19962;-64